Time;durP1;ratioP1;P1;durP2;ratioP2;P2;SDS_P1;SDS_P2;PMS_P1;PMS_P2;Temp;Humidity;BMP_temperature;BMP_pressure;BME280_temperature;BME280_humidity;BME280_pressure;Samples;Min_cycle;Max_cycle;Signal;HPM_P1;HPM_P2
2024/03/28 00:01:01;;;;;;;15.82;3.10;;;8.80;90.40;;;;;;5021660;28;20351;-86
2024/03/28 00:03:27;;;;;;;13.82;2.30;;;8.90;89.70;;;;;;5040129;28;20154;-86
2024/03/28 00:05:54;;;;;;;17.33;3.55;;;8.90;89.00;;;;;;5040139;28;20644;-86
2024/03/28 00:08:20;;;;;;;13.68;2.17;;;8.80;86.90;;;;;;5022244;28;20174;-86
2024/03/28 00:10:51;;;;;;;15.15;2.80;;;8.80;87.90;;;;;;5022842;28;20176;-86
2024/03/28 00:13:17;;;;;;;13.55;2.35;;;8.80;88.80;;;;;;5023041;28;20158;-86
2024/03/28 00:15:43;;;;;;;14.55;2.55;;;8.80;86.60;;;;;;5021670;28;20193;-86
2024/03/28 00:18:09;;;;;;;14.32;2.45;;;8.80;86.60;;;;;;5023224;28;20173;-86
2024/03/28 00:20:35;;;;;;;14.00;2.47;;;8.80;83.10;;;;;;5039390;28;20194;-86
2024/03/28 00:23:02;;;;;;;14.20;2.40;;;8.70;83.10;;;;;;5040620;28;20200;-86
2024/03/28 00:25:31;;;;;;;14.00;2.10;;;8.70;84.80;;;;;;5039421;28;20174;-86
2024/03/28 00:28:02;;;;;;;13.60;2.30;;;8.80;83.20;;;;;;5039894;28;20169;-86
2024/03/28 00:30:28;;;;;;;15.30;2.25;;;8.80;85.70;;;;;;5040271;28;20170;-86
2024/03/28 00:32:53;;;;;;;14.10;2.50;;;8.80;84.60;;;;;;5039353;28;20187;-86
2024/03/28 00:35:19;;;;;;;13.00;1.90;;;8.80;80.30;;;;;;5039795;28;20170;-86
2024/03/28 00:37:45;;;;;;;13.53;1.97;;;8.80;79.30;;;;;;5039061;28;20170;-86
2024/03/28 00:40:12;;;;;;;15.07;2.87;;;8.80;79.60;;;;;;5038427;28;20412;-86
2024/03/28 00:42:38;;;;;;;13.80;2.55;;;8.80;78.70;;;;;;5039843;28;20202;-86
2024/03/28 00:45:04;;;;;;;16.70;2.60;;;8.80;79.50;;;;;;5021665;28;20265;-86
2024/03/28 00:47:30;;;;;;;13.10;1.92;;;8.80;80.90;;;;;;5038953;28;20158;-86
2024/03/28 00:49:56;;;;;;;14.63;2.07;;;8.80;80.30;;;;;;5039982;28;20188;-86
2024/03/28 00:52:25;;;;;;;13.80;2.37;;;8.70;79.50;;;;;;5038816;28;20249;-86
2024/03/28 00:54:51;;;;;;;15.63;2.28;;;8.70;81.30;;;;;;5041697;28;20170;-86
2024/03/28 00:57:16;;;;;;;14.27;2.10;;;8.60;81.90;;;;;;5043387;28;20209;-86
2024/03/28 00:59:42;;;;;;;13.60;2.30;;;8.70;81.20;;;;;;5042925;28;20176;-86
2024/03/28 01:02:07;;;;;;;13.70;2.27;;;8.60;79.40;;;;;;5043527;28;20232;-86
2024/03/28 01:04:33;;;;;;;13.53;2.13;;;8.60;76.70;;;;;;5042934;28;20681;-86
2024/03/28 01:06:59;;;;;;;13.33;1.97;;;8.50;75.10;;;;;;5025025;28;20174;-86
2024/03/28 01:09:24;;;;;;;14.37;2.40;;;8.50;75.60;;;;;;5042236;28;20176;-86
2024/03/28 01:11:51;;;;;;;13.60;2.10;;;8.50;74.40;;;;;;5040276;28;20276;-86
2024/03/28 01:14:17;;;;;;;14.10;2.08;;;8.60;77.90;;;;;;5022565;28;20173;-86
2024/03/28 01:16:42;;;;;;;13.00;2.07;;;8.60;68.20;;;;;;5040478;28;20173;-85
2024/03/28 01:19:08;;;;;;;14.80;2.30;;;8.60;66.20;;;;;;5022428;28;20640;-85
2024/03/28 01:21:34;;;;;;;13.27;2.13;;;8.60;62.30;;;;;;5022214;28;20210;-86
2024/03/28 01:23:59;;;;;;;13.80;2.07;;;8.60;65.50;;;;;;5040448;28;20165;-85
2024/03/28 01:26:25;;;;;;;14.47;2.70;;;8.60;65.60;;;;;;5040390;28;20165;-85
2024/03/28 01:28:50;;;;;;;13.50;2.10;;;8.60;63.90;;;;;;5040626;28;20229;-86
2024/03/28 01:31:16;;;;;;;14.50;2.53;;;8.60;60.30;;;;;;5040872;28;20186;-85
2024/03/28 01:33:42;;;;;;;14.20;2.33;;;8.50;64.40;;;;;;5022569;28;20606;-86
2024/03/28 01:36:07;;;;;;;15.03;2.47;;;8.60;65.10;;;;;;5040760;28;20205;-85
2024/03/28 01:38:33;;;;;;;15.53;2.43;;;8.60;67.30;;;;;;5022617;28;20165;-85
2024/03/28 01:40:58;;;;;;;13.10;2.10;;;8.60;67.40;;;;;;5022342;28;20202;-85
2024/03/28 01:43:24;;;;;;;14.53;2.27;;;8.60;69.90;;;;;;5040133;28;20523;-85
2024/03/28 01:45:56;;;;;;;14.53;2.70;;;8.50;72.70;;;;;;5040267;28;20158;-85
2024/03/28 01:48:22;;;;;;;14.88;2.45;;;8.50;75.50;;;;;;5022006;28;20189;-86
2024/03/28 01:50:48;;;;;;;14.60;2.60;;;8.50;76.30;;;;;;5039760;28;20177;-85
2024/03/28 01:53:15;;;;;;;14.80;2.78;;;8.50;77.00;;;;;;5039506;28;20405;-86
2024/03/28 01:55:41;;;;;;;17.58;2.70;;;8.40;76.30;;;;;;5039821;28;20170;-86
2024/03/28 01:58:08;;;;;;;15.70;2.80;;;8.40;79.20;;;;;;5021358;28;20177;-86
2024/03/28 02:00:34;;;;;;;13.90;2.47;;;8.50;69.60;;;;;;5021816;28;20189;-86
2024/03/28 02:02:59;;;;;;;14.00;2.33;;;8.50;71.00;;;;;;5039740;28;20236;-86
2024/03/28 02:05:25;;;;;;;14.00;2.60;;;8.50;70.20;;;;;;5038783;28;20197;-86
2024/03/28 02:07:51;;;;;;;13.73;2.17;;;8.50;67.00;;;;;;5021310;28;20173;-86
2024/03/28 02:10:17;;;;;;;14.07;2.57;;;8.40;70.50;;;;;;5038969;28;20166;-85
2024/03/28 02:12:44;;;;;;;15.83;3.20;;;8.40;69.30;;;;;;5038818;28;20456;-85
2024/03/28 02:15:09;;;;;;;14.35;2.42;;;8.50;70.30;;;;;;5039339;28;20401;-86
2024/03/28 02:17:49;;;;;;;14.63;2.97;;;8.30;74.10;;;;;;5039135;28;20535;-87
2024/03/28 02:20:15;;;;;;;15.95;2.95;;;8.30;77.60;;;;;;5038703;28;20154;-86
2024/03/28 02:22:41;;;;;;;14.35;2.72;;;8.30;78.60;;;;;;5021215;28;20192;-85
2024/03/28 02:25:07;;;;;;;15.20;2.33;;;8.30;80.10;;;;;;5021644;28;20165;-87
2024/03/28 02:27:34;;;;;;;14.98;2.97;;;8.20;81.80;;;;;;5021725;28;20166;-85
2024/03/28 02:30:00;;;;;;;15.13;3.35;;;8.20;84.90;;;;;;5040013;28;20158;-86
2024/03/28 02:32:26;;;;;;;14.40;3.13;;;8.20;85.00;;;;;;5042064;28;20547;-86
2024/03/28 02:34:52;;;;;;;14.27;2.80;;;8.30;83.90;;;;;;5041596;28;20162;-87
2024/03/28 02:37:18;;;;;;;14.63;3.20;;;8.30;84.40;;;;;;5041897;28;20174;-87
2024/03/28 02:39:46;;;;;;;14.45;2.47;;;8.20;84.90;;;;;;5023885;28;20177;-86
2024/03/28 02:42:12;;;;;;;16.10;2.70;;;8.20;85.00;;;;;;5041097;28;20567;-86
2024/03/28 02:44:37;;;;;;;15.10;2.63;;;8.20;84.70;;;;;;5040432;28;20166;-86
2024/03/28 02:47:03;;;;;;;15.20;2.53;;;8.20;84.70;;;;;;5041417;28;20233;-86
2024/03/28 02:49:29;;;;;;;14.30;3.00;;;8.10;85.80;;;;;;5041370;28;20190;-86
2024/03/28 02:51:55;;;;;;;16.90;4.27;;;8.10;86.40;;;;;;5041097;28;20194;-86
2024/03/28 02:54:21;;;;;;;14.00;2.53;;;8.10;86.90;;;;;;5023664;28;20425;-86
2024/03/28 02:56:51;;;;;;;14.37;2.90;;;8.10;86.50;;;;;;5040950;28;20170;-86
2024/03/28 02:59:17;;;;;;;16.17;3.35;;;8.00;87.60;;;;;;5041731;28;20169;-86
2024/03/28 03:01:43;;;;;;;15.00;3.20;;;7.90;90.90;;;;;;5041031;28;20578;-86
2024/03/28 03:04:08;;;;;;;14.17;2.50;;;7.90;89.30;;;;;;5041134;28;20488;-87
2024/03/28 03:06:34;;;;;;;13.97;2.30;;;7.80;91.00;;;;;;5023178;28;20170;-86
2024/03/28 03:09:00;;;;;;;14.35;3.22;;;7.90;91.90;;;;;;5023029;28;20197;-87
2024/03/28 03:11:26;;;;;;;15.00;2.60;;;7.90;90.80;;;;;;5022727;28;20193;-86
2024/03/28 03:13:52;;;;;;;20.03;3.47;;;7.90;92.20;;;;;;5021969;28;20235;-86
2024/03/28 03:16:18;;;;;;;14.48;3.10;;;7.80;94.70;;;;;;5040553;28;20239;-87
2024/03/28 03:18:43;;;;;;;14.60;2.70;;;7.80;95.30;;;;;;5040441;28;20710;-86
2024/03/28 03:21:10;;;;;;;14.37;2.90;;;7.80;96.00;;;;;;5039586;28;20206;-86
2024/03/28 03:23:37;;;;;;;15.30;2.95;;;7.80;96.10;;;;;;5040024;28;20165;-86
2024/03/28 03:26:19;;;;;;;14.55;3.20;;;7.80;94.80;;;;;;5022102;28;20173;-86
2024/03/28 03:36:59;;;;;;;14.55;2.75;;;7.80;95.60;;;;;;5040795;28;20236;-85
2024/03/28 03:39:24;;;;;;;16.97;3.77;;;7.80;95.80;;;;;;5039964;28;20170;-86
2024/03/28 03:41:50;;;;;;;14.10;3.20;;;7.80;96.60;;;;;;5021768;28;20198;-86
2024/03/28 03:44:15;;;;;;;16.50;4.27;;;7.80;94.80;;;;;;5022702;28;20260;-86
2024/03/28 03:46:41;;;;;;;16.07;3.80;;;7.80;95.20;;;;;;5022020;28;20276;-86
2024/03/28 03:49:07;;;;;;;18.93;4.07;;;7.90;94.40;;;;;;5039316;28;20188;-86
2024/03/28 03:51:33;;;;;;;18.73;4.30;;;7.90;94.50;;;;;;5036900;28;20185;-85
2024/03/28 03:53:59;;;;;;;16.10;3.63;;;7.90;94.60;;;;;;5036543;28;20536;-85
2024/03/28 03:56:26;;;;;;;16.47;3.80;;;7.80;95.60;;;;;;5037051;28;20288;-85
2024/03/28 03:58:51;;;;;;;15.45;3.45;;;7.80;96.50;;;;;;5018996;28;20173;-85
2024/03/28 04:01:17;;;;;;;16.40;4.10;;;7.90;95.20;;;;;;5037875;28;20205;-86
2024/03/28 04:03:44;;;;;;;15.00;3.60;;;7.80;95.20;;;;;;5021725;28;20197;-86
2024/03/28 04:06:10;;;;;;;16.98;4.20;;;7.80;94.90;;;;;;5039350;28;20631;-86
2024/03/28 04:08:36;;;;;;;16.52;3.65;;;7.70;95.70;;;;;;5038538;28;20193;-86
2024/03/28 04:11:02;;;;;;;15.02;3.35;;;7.70;97.70;;;;;;5038598;28;20190;-86
2024/03/28 04:13:28;;;;;;;18.33;4.27;;;7.70;96.70;;;;;;5021148;28;20180;-86
2024/03/28 04:15:53;;;;;;;17.27;4.00;;;7.70;96.80;;;;;;5039229;28;20226;-85
2024/03/28 04:18:19;;;;;;;15.27;3.40;;;7.70;97.70;;;;;;5038694;28;20174;-85
2024/03/28 04:20:45;;;;;;;15.70;3.67;;;7.80;96.20;;;;;;5038838;28;20213;-85
2024/03/28 04:23:10;;;;;;;17.67;4.55;;;7.80;95.20;;;;;;5021169;28;20172;-85
2024/03/28 04:25:36;;;;;;;17.87;4.93;;;7.70;95.40;;;;;;5039069;28;20686;-85
2024/03/28 04:28:02;;;;;;;17.07;3.50;;;7.60;95.70;;;;;;5020543;28;20173;-86
2024/03/28 04:30:32;;;;;;;17.17;4.70;;;7.60;96.10;;;;;;5039549;28;20166;-85
2024/03/28 04:32:58;;;;;;;17.67;4.78;;;7.60;96.10;;;;;;5021324;28;20705;-86
2024/03/28 04:35:24;;;;;;;19.07;4.63;;;7.60;95.50;;;;;;5039152;28;20272;-85
2024/03/28 04:37:51;;;;;;;16.75;4.45;;;7.50;97.00;;;;;;5038434;28;20162;-86
2024/03/28 04:40:17;;;;;;;17.92;5.00;;;7.50;97.60;;;;;;5038602;28;20174;-86
2024/03/28 04:42:50;;;;;;;15.87;4.10;;;7.40;97.30;;;;;;5021001;28;20666;-85
2024/03/28 04:45:18;;;;;;;18.65;4.85;;;7.50;96.80;;;;;;5020983;28;20397;-85
2024/03/28 04:47:47;;;;;;;18.55;4.88;;;7.40;95.50;;;;;;5037475;28;20531;-85
2024/03/28 04:50:17;;;;;;;17.20;4.07;;;7.40;95.30;;;;;;5035844;28;20215;-85
2024/03/28 04:52:44;;;;;;;18.55;3.95;;;7.40;94.90;;;;;;5035485;28;20265;-84
2024/03/28 04:55:10;;;;;;;16.58;4.18;;;7.40;94.20;;;;;;5035738;28;20224;-85
2024/03/28 04:57:36;;;;;;;16.98;3.40;;;7.50;93.40;;;;;;5035197;28;20169;-84
2024/03/28 05:00:06;;;;;;;17.13;3.60;;;7.60;90.90;;;;;;5017523;28;20174;-84
2024/03/28 05:02:32;;;;;;;15.55;3.50;;;7.60;89.90;;;;;;5035382;28;20468;-84
2024/03/28 05:04:58;;;;;;;15.33;4.10;;;7.50;90.50;;;;;;5018074;28;20623;-86
2024/03/28 05:07:23;;;;;;;15.90;3.40;;;7.60;91.00;;;;;;5018492;28;20198;-85
2024/03/28 05:09:50;;;;;;;19.40;4.43;;;7.60;92.10;;;;;;5036146;28;20585;-86
2024/03/28 05:12:16;;;;;;;17.92;4.47;;;7.60;93.30;;;;;;5036219;28;20425;-84
2024/03/28 05:14:41;;;;;;;16.80;4.23;;;7.60;93.10;;;;;;5035902;28;20225;-84
2024/03/28 05:17:08;;;;;;;16.97;4.50;;;7.60;91.40;;;;;;5035828;28;20651;-85
2024/03/28 05:19:33;;;;;;;17.30;4.28;;;7.60;91.40;;;;;;5036155;28;20586;-85
2024/03/28 05:21:59;;;;;;;17.17;4.00;;;7.60;90.70;;;;;;5017609;28;20206;-85
2024/03/28 05:24:25;;;;;;;17.93;3.83;;;7.60;92.60;;;;;;5035527;28;20772;-85
2024/03/28 05:26:50;;;;;;;16.63;4.40;;;7.60;91.10;;;;;;5017444;28;20412;-85
2024/03/28 05:29:16;;;;;;;20.73;4.07;;;7.50;91.40;;;;;;5017771;28;20202;-85
2024/03/28 05:31:42;;;;;;;14.93;3.70;;;7.50;92.50;;;;;;5035480;28;20186;-84
2024/03/28 05:34:08;;;;;;;15.97;3.57;;;7.40;93.30;;;;;;5035170;28;20170;-85
2024/03/28 05:36:36;;;;;;;15.68;3.33;;;7.40;93.30;;;;;;5035411;28;20184;-84
2024/03/28 05:39:06;;;;;;;15.50;3.22;;;7.50;93.40;;;;;;5017648;28;20265;-84
2024/03/28 05:41:32;;;;;;;16.02;3.95;;;7.50;91.50;;;;;;5020577;28;20260;-84
2024/03/28 05:43:58;;;;;;;15.60;3.42;;;7.40;92.60;;;;;;5020949;28;20177;-85
2024/03/28 05:46:24;;;;;;;15.82;4.15;;;7.40;93.80;;;;;;5039103;28;20170;-85
2024/03/28 05:48:50;;;;;;;16.95;3.40;;;7.40;92.60;;;;;;5038680;28;20204;-84
2024/03/28 05:51:16;;;;;;;15.70;3.17;;;7.40;93.30;;;;;;5020820;28;20280;-84
2024/03/28 05:53:45;;;;;;;15.63;2.90;;;7.40;92.90;;;;;;5038986;28;20169;-85
2024/03/28 05:56:14;;;;;;;14.68;2.97;;;7.40;93.60;;;;;;5039000;28;20401;-84
2024/03/28 05:58:40;;;;;;;17.00;3.05;;;7.50;93.30;;;;;;5038372;28;20166;-84
2024/03/28 06:01:05;;;;;;;15.30;3.60;;;7.50;92.70;;;;;;5038061;28;20204;-84
2024/03/28 06:03:31;;;;;;;17.43;3.37;;;7.70;91.70;;;;;;5038121;28;20150;-84
2024/03/28 06:05:57;;;;;;;14.83;2.80;;;7.60;87.50;;;;;;5040123;28;20212;-86
2024/03/28 06:08:22;;;;;;;15.30;2.97;;;7.70;85.30;;;;;;5023581;28;20165;-85
2024/03/28 06:10:48;;;;;;;14.80;2.63;;;7.60;81.40;;;;;;5023605;28;20166;-85
2024/03/28 06:13:16;;;;;;;14.00;2.70;;;7.60;79.60;;;;;;5041172;28;20169;-86
2024/03/28 06:15:42;;;;;;;13.43;1.90;;;7.70;80.00;;;;;;5041836;28;20174;-86
2024/03/28 06:18:07;;;;;;;14.47;2.23;;;7.70;75.60;;;;;;5041003;28;20181;-86
2024/03/28 06:20:33;;;;;;;15.30;2.67;;;7.70;74.50;;;;;;5040936;28;20239;-85
2024/03/28 06:22:58;;;;;;;15.67;2.83;;;7.80;73.00;;;;;;5041533;28;20162;-86
2024/03/28 06:25:24;;;;;;;14.10;2.40;;;7.80;75.10;;;;;;5023605;28;20161;-86
2024/03/28 06:27:53;;;;;;;17.80;3.07;;;8.00;72.70;;;;;;5041460;28;20661;-86
2024/03/28 06:30:25;;;;;;;15.02;2.40;;;8.10;66.20;;;;;;5040931;28;20400;-85
2024/03/28 06:32:54;;;;;;;14.45;2.55;;;8.20;60.60;;;;;;5040894;28;20186;-86
2024/03/28 06:35:22;;;;;;;15.20;3.78;;;8.30;54.20;;;;;;5040765;28;20704;-84
2024/03/28 06:37:48;;;;;;;14.55;2.47;;;8.30;53.00;;;;;;5022586;28;20198;-86
2024/03/28 06:40:13;;;;;;;14.68;2.65;;;8.40;47.90;;;;;;5023262;28;20709;-86
2024/03/28 06:42:39;;;;;;;14.80;2.40;;;8.30;45.70;;;;;;5022509;28;20205;-86
2024/03/28 06:45:05;;;;;;;15.67;2.87;;;8.40;43.90;;;;;;5023057;28;20177;-86
2024/03/28 06:47:31;;;;;;;15.07;2.70;;;8.30;38.80;;;;;;5040625;28;20211;-86
2024/03/28 06:49:56;;;;;;;14.00;2.57;;;8.40;41.50;;;;;;5040134;28;20643;-85
2024/03/28 06:52:22;;;;;;;15.03;2.80;;;8.40;39.30;;;;;;5077337;23;20302;-84
2024/03/28 06:54:48;;;;;;;14.97;2.33;;;8.40;38.60;;;;;;5018751;28;20198;-81
2024/03/28 06:57:13;;;;;;;16.67;3.17;;;8.60;36.90;;;;;;5019524;28;20167;-81
2024/03/28 06:59:39;;;;;;;15.13;2.37;;;8.60;30.20;;;;;;5000852;28;20167;-81
2024/03/28 07:02:05;;;;;;;15.00;2.10;;;8.60;21.10;;;;;;4999838;28;20206;-81
2024/03/28 07:04:30;;;;;;;14.87;2.33;;;8.50;19.70;;;;;;5018733;28;20555;-82
2024/03/28 07:06:56;;;;;;;13.20;1.90;;;8.50;16.50;;;;;;5019613;28;20405;-82
2024/03/28 07:09:22;;;;;;;13.97;2.27;;;8.40;17.20;;;;;;5019717;28;20157;-82
2024/03/28 07:11:47;;;;;;;13.20;2.27;;;8.40;19.60;;;;;;5018909;28;20194;-82
2024/03/28 07:14:18;;;;;;;14.10;2.27;;;8.50;21.70;;;;;;5001485;28;20171;-82
2024/03/28 07:16:44;;;;;;;15.65;2.67;;;8.40;16.90;;;;;;5001827;28;20162;-82
2024/03/28 07:19:10;;;;;;;14.63;2.77;;;8.40;21.60;;;;;;5019156;28;20170;-82
2024/03/28 07:21:36;;;;;;;13.75;2.53;;;8.30;22.50;;;;;;5019002;28;20919;-84
2024/03/28 07:24:03;;;;;;;14.48;2.28;;;8.30;26.50;;;;;;5019547;28;20166;-85
2024/03/28 07:26:28;;;;;;;13.82;1.95;;;8.40;31.30;;;;;;5018842;28;20167;-84
2024/03/28 07:28:54;;;;;;;15.17;2.70;;;8.40;26.90;;;;;;5018424;28;20173;-85
2024/03/28 07:31:19;;;;;;;14.17;2.23;;;8.40;24.30;;;;;;5018402;28;20179;-85
2024/03/28 07:33:45;;;;;;;13.60;2.00;;;8.40;26.50;;;;;;5019022;28;20174;-84
2024/03/28 07:36:11;;;;;;;14.53;2.00;;;8.50;23.10;;;;;;5019403;28;20173;-80
2024/03/28 07:38:37;;;;;;;13.97;2.00;;;8.40;27.60;;;;;;5019514;28;20178;-82
2024/03/28 07:41:03;;;;;;;13.70;1.70;;;8.40;28.10;;;;;;5001035;28;20460;-81
2024/03/28 07:46:24;;;;;;;13.25;1.20;;;8.40;44.80;;;;;;4994629;28;20919;-84
2024/03/28 07:48:51;;;;;;;13.73;1.77;;;8.40;54.90;;;;;;5017879;28;20165;-83
2024/03/28 07:51:17;;;;;;;12.70;1.40;;;8.40;59.90;;;;;;5017721;28;20978;-83
2024/03/28 07:53:42;;;;;;;12.90;1.70;;;8.40;72.30;;;;;;5017753;28;20170;-82
2024/03/28 07:56:08;;;;;;;12.27;1.20;;;8.40;74.00;;;;;;5017541;28;20409;-81
2024/03/28 07:58:34;;;;;;;14.02;1.50;;;8.40;85.50;;;;;;4999573;28;20272;-81
2024/03/28 08:01:07;;;;;;;13.87;1.30;;;8.40;87.00;;;;;;5000363;28;20205;-81
2024/03/28 08:03:34;;;;;;;14.05;1.38;;;8.40;89.60;;;;;;5017098;28;20405;-80
2024/03/28 08:06:01;;;;;;;12.60;1.50;;;8.40;90.50;;;;;;4999593;28;20170;-80
2024/03/28 08:08:26;;;;;;;13.95;1.52;;;8.30;91.50;;;;;;5019465;28;20159;-81
2024/03/28 08:10:52;;;;;;;12.57;1.40;;;8.30;99.60;;;;;;5019815;28;20216;-81
2024/03/28 08:13:18;;;;;;;13.27;1.53;;;8.30;99.90;;;;;;5020653;28;20170;-81
2024/03/28 08:15:45;;;;;;;12.32;1.27;;;8.30;99.90;;;;;;5020984;28;20194;-81
2024/03/28 08:18:11;;;;;;;13.17;1.60;;;8.20;99.90;;;;;;5020605;28;20692;-81
2024/03/28 08:20:36;;;;;;;13.60;1.47;;;8.20;99.90;;;;;;5020185;28;20197;-81
2024/03/28 08:23:02;;;;;;;13.50;1.27;;;8.20;99.90;;;;;;5021582;28;20162;-82
2024/03/28 08:25:29;;;;;;;12.53;1.47;;;8.10;99.90;;;;;;5022412;28;20159;-82
2024/03/28 08:27:56;;;;;;;12.55;1.25;;;8.10;99.90;;;;;;5004567;28;20421;-82
2024/03/28 08:30:22;;;;;;;12.43;1.05;;;8.10;99.90;;;;;;5021649;28;20162;-82
2024/03/28 08:32:48;;;;;;;12.77;1.30;;;8.20;99.90;;;;;;5021515;28;20197;-82
2024/03/28 08:35:13;;;;;;;12.40;1.20;;;8.20;99.90;;;;;;5021204;28;20195;-81
2024/03/28 08:37:40;;;;;;;12.57;1.23;;;8.30;99.90;;;;;;5021325;28;20181;-81
2024/03/28 08:40:09;;;;;;;13.30;1.40;;;8.40;99.90;;;;;;5021261;28;20401;-81
2024/03/28 08:42:39;;;;;;;12.50;1.20;;;8.30;99.90;;;;;;5020604;28;20190;-82
2024/03/28 08:45:08;;;;;;;12.60;1.27;;;8.30;99.90;;;;;;5021000;28;20167;-81
2024/03/28 08:47:35;;;;;;;12.60;1.10;;;8.40;99.90;;;;;;5003676;28;20173;-82
2024/03/28 08:50:03;;;;;;;13.35;1.13;;;8.50;99.90;;;;;;5002702;28;20198;-81
2024/03/28 08:52:29;;;;;;;12.35;1.10;;;8.50;99.90;;;;;;5021405;28;20240;-82
2024/03/28 08:54:56;;;;;;;12.15;1.10;;;8.50;99.90;;;;;;5004631;28;20241;-82
2024/03/28 08:57:22;;;;;;;14.52;1.60;;;8.50;99.00;;;;;;5020597;28;20253;-81
2024/03/28 08:59:50;;;;;;;12.90;1.40;;;8.50;99.20;;;;;;5021348;28;20171;-81
2024/03/28 09:02:18;;;;;;;12.75;1.20;;;8.50;97.00;;;;;;5020634;28;20202;-83
2024/03/28 09:04:47;;;;;;;13.27;1.38;;;8.60;98.20;;;;;;5020687;28;20194;-84
2024/03/28 09:07:16;;;;;;;13.30;1.50;;;8.60;98.10;;;;;;5021161;28;20217;-84
2024/03/28 09:09:45;;;;;;;12.43;1.13;;;8.60;97.10;;;;;;5020508;28;20193;-83
2024/03/28 09:12:13;;;;;;;13.50;1.40;;;8.70;97.60;;;;;;5021387;28;20195;-82
2024/03/28 09:14:39;;;;;;;12.52;1.30;;;8.80;97.90;;;;;;5022018;28;20177;-81
2024/03/28 09:17:08;;;;;;;12.80;1.30;;;9.00;98.70;;;;;;5024864;28;20174;-82
2024/03/28 09:19:34;;;;;;;12.55;1.42;;;9.00;94.50;;;;;;5008738;28;20159;-82
2024/03/28 09:22:01;;;;;;;12.80;1.40;;;9.10;94.70;;;;;;5026025;28;20252;-82
2024/03/28 09:24:26;;;;;;;12.55;1.27;;;9.30;93.10;;;;;;5027006;28;20390;-82
2024/03/28 09:26:52;;;;;;;12.17;0.97;;;9.30;87.00;;;;;;5027719;28;20174;-82
2024/03/28 09:29:20;;;;;;;12.33;1.07;;;9.30;84.50;;;;;;5026042;28;20186;-82
2024/03/28 09:31:48;;;;;;;12.98;1.40;;;9.40;86.80;;;;;;5025148;28;20194;-82
2024/03/28 09:34:15;;;;;;;12.40;1.10;;;9.40;85.70;;;;;;5025212;28;20532;-82
2024/03/28 09:36:41;;;;;;;14.85;2.10;;;9.50;90.90;;;;;;5023394;28;20182;-83
2024/03/28 09:39:09;;;;;;;14.97;1.40;;;9.30;88.90;;;;;;5023233;28;20171;-83
2024/03/28 09:41:38;;;;;;;12.98;1.15;;;9.40;77.60;;;;;;5018624;28;20796;-83
2024/03/28 09:44:05;;;;;;;12.45;1.00;;;9.40;51.70;;;;;;5005718;28;20166;-82
2024/03/28 09:46:33;;;;;;;12.65;1.20;;;9.30;57.30;;;;;;5021050;28;20233;-83
2024/03/28 09:49:02;;;;;;;12.65;1.17;;;9.20;39.00;;;;;;5021990;28;20162;-82
2024/03/28 09:51:30;;;;;;;12.60;1.42;;;9.20;38.00;;;;;;5003316;28;20206;-81
2024/03/28 09:53:59;;;;;;;12.90;1.00;;;8.90;30.00;;;;;;5021686;28;20225;-82
2024/03/28 09:56:25;;;;;;;12.00;0.80;;;8.90;32.70;;;;;;5022380;28;20540;-82
2024/03/28 09:58:51;;;;;;;12.13;1.00;;;8.90;34.20;;;;;;5020604;28;20209;-82
2024/03/28 10:01:17;;;;;;;12.38;0.98;;;8.80;27.40;;;;;;5020843;28;20205;-81
2024/03/28 10:03:50;;;;;;;12.23;1.00;;;8.90;32.70;;;;;;5020278;28;20163;-81
2024/03/28 10:06:16;;;;;;;13.35;1.02;;;8.90;30.00;;;;;;5002927;28;20162;-82
2024/03/28 10:08:42;;;;;;;12.20;1.03;;;8.80;29.50;;;;;;5020710;28;20698;-82
2024/03/28 10:11:08;;;;;;;16.42;1.50;;;8.90;32.80;;;;;;5023232;28;20182;-82
2024/03/28 10:13:38;;;;;;;15.67;1.80;;;9.10;32.50;;;;;;5022497;28;20221;-81
2024/03/28 10:16:06;;;;;;;13.38;1.33;;;9.20;25.00;;;;;;5021991;28;20182;-82
2024/03/28 10:18:35;;;;;;;12.70;1.10;;;9.20;25.90;;;;;;5020602;28;20636;-83
2024/03/28 10:21:02;;;;;;;13.40;1.50;;;9.30;22.70;;;;;;5020430;28;20708;-84
2024/03/28 10:23:38;;;;;;;15.85;1.50;;;9.40;20.80;;;;;;5002582;28;20169;-85
2024/03/28 10:26:04;;;;;;;12.90;1.20;;;9.60;19.70;;;;;;5002607;28;20285;-84
2024/03/28 10:28:32;;;;;;;17.70;1.45;;;9.60;5.90;;;;;;5020532;28;20159;-84
2024/03/28 10:31:04;;;;;;;12.80;1.20;;;9.70;12.50;;;;;;5019529;28;20210;-84
2024/03/28 10:33:33;;;;;;;12.55;0.93;;;9.90;5.30;;;;;;5021051;28;20186;-84
2024/03/28 10:36:00;;;;;;;12.43;0.90;;;10.00;7.40;;;;;;5004009;28;20171;-84
2024/03/28 10:38:26;;;;;;;13.00;1.00;;;10.20;6.60;;;;;;5021611;28;20163;-84
2024/03/28 10:40:59;;;;;;;12.30;1.10;;;10.50;1.00;;;;;;5019803;28;20205;-83
2024/03/28 10:43:26;;;;;;;12.55;1.20;;;10.80;1.00;;;;;;5019666;28;20394;-84
2024/03/28 10:45:56;;;;;;;12.90;1.00;;;11.10;1.00;;;;;;5002095;28;20229;-84
2024/03/28 10:48:24;;;;;;;12.30;0.90;;;11.50;1.00;;;;;;5016703;28;20569;-84
2024/03/28 10:51:28;;;;;;;12.50;0.80;;;11.80;1.00;;;;;;4999983;28;20167;-84
2024/03/28 10:54:21;;;;;;;13.10;1.15;;;12.00;1.00;;;;;;4983187;28;20197;-84
2024/03/28 10:56:48;;;;;;;12.07;0.70;;;12.20;1.00;;;;;;5017771;28;20162;-84
2024/03/28 10:59:14;;;;;;;13.38;1.00;;;11.90;1.00;;;;;;5000878;28;20220;-84
2024/03/28 11:01:40;;;;;;;12.18;0.80;;;11.90;1.00;;;;;;5001236;28;20206;-85
2024/03/28 11:04:11;;;;;;;12.15;0.77;;;12.00;1.00;;;;;;5019403;28;20253;-85
2024/03/28 11:06:37;;;;;;;12.65;0.82;;;12.10;1.00;;;;;;5018994;28;20151;-84
2024/03/28 11:09:07;;;;;;;12.32;0.80;;;12.00;1.00;;;;;;5018391;28;20177;-84
2024/03/28 11:11:33;;;;;;;11.98;0.80;;;12.20;1.00;;;;;;5018348;28;20190;-84
2024/03/28 11:14:03;;;;;;;12.50;0.70;;;12.50;1.00;;;;;;5018742;28;20536;-84
2024/03/28 11:16:29;;;;;;;11.98;0.75;;;12.60;1.00;;;;;;5017910;28;20219;-84
2024/03/28 11:19:00;;;;;;;11.63;0.63;;;12.60;1.00;;;;;;5017900;28;20194;-84
2024/03/28 11:21:33;;;;;;;11.85;0.70;;;12.60;1.00;;;;;;5017279;28;20217;-83
2024/03/28 11:24:01;;;;;;;11.75;0.70;;;12.60;1.00;;;;;;5000886;28;20517;-83
2024/03/28 11:26:27;;;;;;;12.03;0.83;;;12.90;1.00;;;;;;5018007;28;20247;-83
2024/03/28 11:29:05;;;;;;;12.10;0.70;;;13.10;1.00;;;;;;5017743;28;20402;-82
2024/03/28 11:31:31;;;;;;;12.83;0.80;;;13.40;1.00;;;;;;5002175;28;20229;-82
2024/03/28 11:34:06;;;;;;;15.02;0.90;;;13.40;1.00;;;;;;5019599;28;20406;-82
2024/03/28 11:36:33;;;;;;;14.00;0.90;;;13.10;1.00;;;;;;5020353;28;20165;-82
2024/03/28 11:38:59;;;;;;;11.98;0.70;;;13.30;1.00;;;;;;5019380;28;20158;-82
2024/03/28 11:41:27;;;;;;;11.63;0.70;;;13.40;1.00;;;;;;5002194;28;20578;-82
2024/03/28 11:43:53;;;;;;;11.80;0.70;;;13.20;1.00;;;;;;5020938;28;20497;-82
2024/03/28 11:46:23;;;;;;;11.75;0.80;;;13.20;1.00;;;;;;5021083;28;20416;-83
2024/03/28 11:48:54;;;;;;;12.80;0.80;;;13.20;1.00;;;;;;5021022;28;20170;-82
2024/03/28 11:51:20;;;;;;;12.30;0.70;;;13.40;1.00;;;;;;5019311;28;20205;-82
2024/03/28 11:53:47;;;;;;;11.57;0.70;;;13.90;1.00;;;;;;5018529;28;20783;-82
2024/03/28 11:56:22;;;;;;;12.13;0.80;;;14.40;1.00;;;;;;5002870;28;20778;-82
2024/03/28 11:58:48;;;;;;;11.50;0.67;;;14.90;1.00;;;;;;5001694;28;20165;-82
2024/03/28 12:01:17;;;;;;;12.87;0.90;;;15.10;1.00;;;;;;5001249;28;20461;-82
2024/03/28 12:03:47;;;;;;;11.57;0.80;;;15.30;99.90;;;;;;5017875;28;20405;-83
2024/03/28 12:06:13;;;;;;;11.47;0.70;;;15.20;99.90;;;;;;5017415;28;20448;-82
2024/03/28 12:08:39;;;;;;;13.80;0.97;;;15.00;99.90;;;;;;5017202;28;20405;-83
2024/03/28 12:11:08;;;;;;;13.80;0.90;;;14.50;99.90;;;;;;4999726;28;20433;-82
2024/03/28 12:13:34;;;;;;;11.90;0.70;;;14.20;99.90;;;;;;5016725;28;20455;-82
2024/03/28 12:16:02;;;;;;;11.37;0.60;;;13.90;99.90;;;;;;5017566;28;20405;-82
2024/03/28 12:18:29;;;;;;;11.60;0.70;;;13.50;99.90;;;;;;4998868;28;20840;-82
2024/03/28 12:21:03;;;;;;;11.90;0.70;;;13.30;1.00;;;;;;5015824;28;20445;-82
2024/03/28 12:23:30;;;;;;;11.90;0.60;;;13.20;1.00;;;;;;4998492;28;20437;-82
2024/03/28 12:25:56;;;;;;;14.77;0.80;;;13.10;1.00;;;;;;5015805;28;20486;-82
2024/03/28 12:28:23;;;;;;;11.63;0.70;;;12.80;1.00;;;;;;5016010;28;20456;-81
2024/03/28 12:30:49;;;;;;;12.25;0.65;;;12.90;1.00;;;;;;5017001;28;20433;-81
2024/03/28 12:33:16;;;;;;;11.67;0.63;;;12.70;1.00;;;;;;5015918;28;20158;-82
2024/03/28 12:35:44;;;;;;;11.53;0.60;;;12.80;1.00;;;;;;5016977;28;20444;-81
2024/03/28 12:38:16;;;;;;;11.63;0.70;;;13.10;1.00;;;;;;5021376;28;20398;-82
2024/03/28 12:40:47;;;;;;;12.70;0.70;;;13.50;1.00;;;;;;5018036;28;20763;-81
2024/03/28 12:43:18;;;;;;;12.80;0.70;;;13.80;1.00;;;;;;5000768;28;20261;-82
2024/03/28 12:45:44;;;;;;;11.63;0.60;;;13.90;1.00;;;;;;5019666;28;20401;-83
2024/03/28 12:48:11;;;;;;;12.40;0.70;;;13.40;1.00;;;;;;5187508;22;21002;-84
2024/03/28 12:50:37;;;;;;;12.30;0.73;;;12.90;1.00;;;;;;5241449;22;20223;-84
2024/03/28 12:53:04;;;;;;;12.40;1.07;;;12.80;1.00;;;;;;5169091;22;20510;-84
2024/03/28 12:55:30;;;;;;;11.87;0.77;;;12.90;1.00;;;;;;5038719;28;20538;-82